createdAt,value
2019-01-17T00:00:16.297Z,406.95
2019-01-17T00:01:16.263Z,407.87
2019-01-17T00:02:16.247Z,407.85
2019-01-17T00:03:16.240Z,407.91
2019-01-17T00:04:16.252Z,407.73
2019-01-17T00:05:16.218Z,407.36
2019-01-17T00:06:16.216Z,407.60
2019-01-17T00:07:16.198Z,407.50
2019-01-17T00:08:16.176Z,408.20
2019-01-17T00:09:16.184Z,408.81
2019-01-17T00:10:16.178Z,408.83
2019-01-17T00:11:16.150Z,408.46
2019-01-17T00:12:16.139Z,407.38
2019-01-17T00:13:16.134Z,407.91
2019-01-17T00:14:16.139Z,409.26
2019-01-17T00:15:16.104Z,408.45
2019-01-17T00:16:16.088Z,408.14
2019-01-17T00:17:16.093Z,408.07
2019-01-17T00:18:16.087Z,407.71
2019-01-17T00:19:16.065Z,407.43
2019-01-17T00:20:16.061Z,408.75
2019-01-17T00:21:16.060Z,408.45
2019-01-17T00:22:16.024Z,407.43
2019-01-17T00:23:16.023Z,409.45
2019-01-17T00:24:16.008Z,408.11
2019-01-17T00:25:16.026Z,408.00
2019-01-17T00:26:15.978Z,407.82
2019-01-17T00:27:15.986Z,408.26
2019-01-17T00:28:16.000Z,407.93
2019-01-17T00:29:15.953Z,408.66
2019-01-17T00:30:15.964Z,408.49
2019-01-17T00:31:15.970Z,407.38
2019-01-17T00:32:15.916Z,407.79
2019-01-17T00:33:15.904Z,408.24
2019-01-17T00:34:15.888Z,408.01
2019-01-17T00:35:15.878Z,407.60
2019-01-17T00:36:15.884Z,408.64
2019-01-17T00:37:15.869Z,408.63
2019-01-17T00:38:15.848Z,408.04
2019-01-17T00:39:15.842Z,407.79
2019-01-17T00:40:15.841Z,406.70
2019-01-17T00:41:15.833Z,408.63
2019-01-17T00:42:15.814Z,408.80
2019-01-17T00:43:15.787Z,408.88
2019-01-17T00:44:15.783Z,407.91
2019-01-17T00:45:15.761Z,407.36
2019-01-17T00:46:15.798Z,408.03
2019-01-17T00:47:15.739Z,408.53
2019-01-17T00:48:15.742Z,408.32
2019-01-17T00:49:15.723Z,408.11
2019-01-17T00:50:15.716Z,408.06
2019-01-17T00:51:15.701Z,408.90
2019-01-17T00:52:15.702Z,408.66
2019-01-17T00:53:15.677Z,408.50
2019-01-17T00:54:15.665Z,407.45
2019-01-17T00:55:15.651Z,408.36
2019-01-17T00:56:15.654Z,408.22
2019-01-17T00:57:15.647Z,407.83
2019-01-17T00:58:15.633Z,407.33
2019-01-17T00:59:15.612Z,408.02
2019-01-17T01:00:15.604Z,408.00
2019-01-17T01:01:15.580Z,407.76
2019-01-17T01:02:15.596Z,407.48
2019-01-17T01:03:15.568Z,407.33
2019-01-17T01:04:15.570Z,408.06
2019-01-17T01:05:15.539Z,407.65
2019-01-17T01:06:15.549Z,407.91
2019-01-17T01:07:15.523Z,407.55
2019-01-17T01:08:15.517Z,407.68
2019-01-17T01:09:15.507Z,409.30
2019-01-17T01:10:15.498Z,407.39
2019-01-17T01:11:15.472Z,407.66
2019-01-17T01:12:15.458Z,407.94
2019-01-17T01:13:15.468Z,407.67
2019-01-17T01:14:15.461Z,407.68
2019-01-17T01:15:15.437Z,409.40
2019-01-17T01:16:15.415Z,407.68
2019-01-17T01:17:15.439Z,408.47
2019-01-17T01:18:15.411Z,408.24
2019-01-17T01:19:15.413Z,407.79
2019-01-17T01:20:15.375Z,407.38
2019-01-17T01:21:15.367Z,408.09
2019-01-17T01:22:15.388Z,407.77
2019-01-17T01:23:15.365Z,406.87
2019-01-17T01:24:15.550Z,406.99
2019-01-17T01:25:15.313Z,408.39
2019-01-17T01:26:15.311Z,407.68
2019-01-17T01:27:15.304Z,407.90
2019-01-17T01:28:15.284Z,407.70
2019-01-17T01:29:15.285Z,407.43
2019-01-17T01:30:15.256Z,407.77
2019-01-17T01:31:15.248Z,407.74
2019-01-17T01:32:15.241Z,407.71
2019-01-17T01:33:15.224Z,407.61
2019-01-17T01:34:15.224Z,407.75
2019-01-17T01:35:15.208Z,407.05
2019-01-17T01:36:15.191Z,407.45
2019-01-17T01:37:15.183Z,408.49
2019-01-17T01:38:15.177Z,407.75
2019-01-17T01:39:15.256Z,407.07
2019-01-17T01:40:15.147Z,408.44
2019-01-17T01:41:15.132Z,408.40
2019-01-17T01:42:15.147Z,407.66
2019-01-17T01:43:15.224Z,407.92
2019-01-17T01:44:15.137Z,407.67
2019-01-17T01:45:15.094Z,407.83
2019-01-17T01:46:15.075Z,407.10
2019-01-17T01:47:15.087Z,407.28
2019-01-17T01:48:15.058Z,407.09
2019-01-17T01:49:15.055Z,407.44
2019-01-17T01:50:15.044Z,407.29
2019-01-17T01:51:15.021Z,407.58
2019-01-17T01:52:15.013Z,407.44
2019-01-17T01:53:15.002Z,407.64
2019-01-17T01:54:14.994Z,407.22
2019-01-17T01:55:14.990Z,406.88
2019-01-17T01:56:14.959Z,407.75
2019-01-17T01:57:14.961Z,407.20
2019-01-17T01:58:14.955Z,408.29
2019-01-17T01:59:14.931Z,408.33
2019-01-17T02:00:14.936Z,407.67
2019-01-17T02:01:14.917Z,407.16
2019-01-17T02:02:14.914Z,407.35
2019-01-17T02:03:14.891Z,407.48
2019-01-17T02:04:14.887Z,408.81
2019-01-17T02:05:14.900Z,407.90
2019-01-17T02:06:14.853Z,408.14
2019-01-17T02:07:14.851Z,407.96
2019-01-17T02:08:15.780Z,408.56
2019-01-17T02:09:14.823Z,408.56
2019-01-17T02:10:14.808Z,407.91
2019-01-17T02:11:14.808Z,407.75
2019-01-17T02:12:14.788Z,407.49
2019-01-17T02:13:14.773Z,407.75
2019-01-17T02:14:14.766Z,408.12
2019-01-17T02:15:14.759Z,407.05
2019-01-17T02:16:14.763Z,408.38
2019-01-17T02:17:14.748Z,407.66
2019-01-17T02:18:14.727Z,408.16
2019-01-17T02:19:14.713Z,407.39
2019-01-17T02:20:14.695Z,406.82
2019-01-17T02:21:14.705Z,407.87
2019-01-17T02:22:14.686Z,407.57
2019-01-17T02:23:14.662Z,407.22
2019-01-17T02:24:14.651Z,407.42
2019-01-17T02:25:14.637Z,407.87
2019-01-17T02:26:14.653Z,407.75
2019-01-17T02:27:14.615Z,406.60
2019-01-17T02:28:14.611Z,407.69
2019-01-17T02:29:14.589Z,408.13
2019-01-17T02:30:14.590Z,407.83
2019-01-17T02:31:14.579Z,407.90
2019-01-17T02:32:14.572Z,407.26
2019-01-17T02:33:14.558Z,407.90
2019-01-17T02:34:14.544Z,407.56
2019-01-17T02:35:14.523Z,407.17
2019-01-17T02:36:14.531Z,407.81
2019-01-17T02:37:14.547Z,407.90
2019-01-17T02:38:14.495Z,407.04
2019-01-17T02:39:14.486Z,408.12
2019-01-17T02:40:14.485Z,407.83
2019-01-17T02:41:14.457Z,408.44
2019-01-17T02:42:14.463Z,408.39
2019-01-17T02:43:14.431Z,409.50
2019-01-17T02:44:14.427Z,408.58
2019-01-17T02:45:14.411Z,407.85
2019-01-17T02:46:14.395Z,407.93
2019-01-17T02:47:14.416Z,407.91
2019-01-17T02:48:14.387Z,408.64
2019-01-17T02:49:14.365Z,408.38
2019-01-17T02:50:14.367Z,408.36
2019-01-17T02:51:14.347Z,408.27
2019-01-17T02:52:14.331Z,408.28
2019-01-17T02:53:14.337Z,407.80
2019-01-17T02:54:14.304Z,407.87
2019-01-17T02:55:14.304Z,408.79
2019-01-17T02:56:14.307Z,408.43
2019-01-17T02:57:14.283Z,408.57
2019-01-17T02:58:14.292Z,408.46
2019-01-17T02:59:14.269Z,406.70
2019-01-17T03:00:14.263Z,408.62
2019-01-17T03:01:14.230Z,408.86
2019-01-17T03:02:14.232Z,409.28
2019-01-17T03:03:14.222Z,408.67
2019-01-17T03:04:14.198Z,408.47
2019-01-17T03:05:14.197Z,407.62
2019-01-17T03:06:14.194Z,407.88
2019-01-17T03:07:14.173Z,407.95
2019-01-17T03:08:14.172Z,407.83
2019-01-17T03:09:14.149Z,408.36
2019-01-17T03:10:14.143Z,408.85
2019-01-17T03:11:14.136Z,408.86
2019-01-17T03:12:14.116Z,407.63
2019-01-17T03:13:14.769Z,407.85
2019-01-17T03:14:14.090Z,409.48
2019-01-17T03:15:14.089Z,408.62
2019-01-17T03:16:14.073Z,408.47
2019-01-17T03:17:14.059Z,407.26
2019-01-17T03:18:14.086Z,408.29
2019-01-17T03:19:14.034Z,408.49
2019-01-17T03:20:14.022Z,408.02
2019-01-17T03:21:14.018Z,408.44
2019-01-17T03:22:14.006Z,408.33
2019-01-17T03:23:13.977Z,409.16
2019-01-17T03:24:14.022Z,407.57
2019-01-17T03:25:13.957Z,408.82
2019-01-17T03:26:13.960Z,408.35
2019-01-17T03:27:13.950Z,408.28
2019-01-17T03:28:13.935Z,407.80
2019-01-17T03:29:13.936Z,407.21
2019-01-17T03:30:13.943Z,407.58
2019-01-17T03:31:13.886Z,408.24
2019-01-17T03:32:13.900Z,407.23
2019-01-17T03:33:13.881Z,407.52
2019-01-17T03:34:13.884Z,407.68
2019-01-17T03:35:13.848Z,408.73
2019-01-17T03:36:13.841Z,408.52
2019-01-17T03:37:13.830Z,407.81
2019-01-17T03:38:14.765Z,407.71
2019-01-17T03:39:13.826Z,407.64
2019-01-17T03:40:13.789Z,407.38
2019-01-17T03:41:13.792Z,408.47
2019-01-17T03:42:13.775Z,408.55
2019-01-17T03:43:13.758Z,407.55
2019-01-17T03:44:13.778Z,407.86
2019-01-17T03:45:13.750Z,408.43
2019-01-17T03:46:13.728Z,408.42
2019-01-17T03:47:13.709Z,409.30
2019-01-17T03:48:13.707Z,408.59
2019-01-17T03:49:13.703Z,408.47
2019-01-17T03:50:13.706Z,407.68
2019-01-17T03:51:13.669Z,409.23
2019-01-17T03:52:13.658Z,408.44
2019-01-17T03:53:13.648Z,408.11
2019-01-17T03:54:13.646Z,409.03
2019-01-17T03:55:13.651Z,408.65
2019-01-17T03:56:13.619Z,408.14
2019-01-17T03:57:13.614Z,408.87
2019-01-17T03:58:13.591Z,407.92
2019-01-17T03:59:13.595Z,407.27
2019-01-17T04:00:13.579Z,407.77
2019-01-17T04:01:13.588Z,409.06
2019-01-17T04:02:13.542Z,409.08
2019-01-17T04:03:13.598Z,407.85
2019-01-17T04:04:13.533Z,408.30
2019-01-17T04:05:13.614Z,407.50
2019-01-17T04:06:13.511Z,409.54
2019-01-17T04:07:13.525Z,408.11
2019-01-17T04:08:13.486Z,409.14
2019-01-17T04:09:13.463Z,408.59
2019-01-17T04:10:13.501Z,408.90
2019-01-17T04:11:13.451Z,407.70
2019-01-17T04:12:13.439Z,408.33
2019-01-17T04:13:13.421Z,408.32
2019-01-17T04:14:13.404Z,409.14
2019-01-17T04:15:13.417Z,409.17
2019-01-17T04:16:13.387Z,408.98
2019-01-17T04:17:13.384Z,408.70
2019-01-17T04:18:13.362Z,408.89
2019-01-17T04:19:13.362Z,407.33
2019-01-17T04:20:13.364Z,408.79
2019-01-17T04:21:13.328Z,408.99
2019-01-17T04:22:13.322Z,409.20
2019-01-17T04:23:13.308Z,408.90
2019-01-17T04:24:13.309Z,409.10
2019-01-17T04:25:13.286Z,409.47
2019-01-17T04:26:13.288Z,409.11
2019-01-17T04:27:13.260Z,408.66
2019-01-17T04:28:13.256Z,408.77
2019-01-17T04:29:13.244Z,408.34
2019-01-17T04:30:13.227Z,409.21
2019-01-17T04:31:13.230Z,408.40
2019-01-17T04:32:13.203Z,408.59
2019-01-17T04:33:13.204Z,407.82
2019-01-17T04:34:13.179Z,408.66
2019-01-17T04:35:13.176Z,408.97
2019-01-17T04:36:13.181Z,409.21
2019-01-17T04:37:13.150Z,409.64
2019-01-17T04:38:13.140Z,409.02
2019-01-17T04:39:13.124Z,409.29
2019-01-17T04:40:13.116Z,409.30
2019-01-17T04:41:13.111Z,408.23
2019-01-17T04:42:13.086Z,408.35
2019-01-17T04:43:13.093Z,408.52
2019-01-17T04:44:13.070Z,408.28
2019-01-17T04:45:13.066Z,409.12
2019-01-17T04:46:13.082Z,409.29
2019-01-17T04:47:13.041Z,408.95
2019-01-17T04:48:13.022Z,409.14
2019-01-17T04:49:13.012Z,408.65
2019-01-17T04:50:13.010Z,409.17
2019-01-17T04:51:12.990Z,408.65
2019-01-17T04:52:12.993Z,408.64
2019-01-17T04:53:12.975Z,409.12
2019-01-17T04:54:12.963Z,409.25
2019-01-17T04:55:12.961Z,410.01
2019-01-17T04:56:12.938Z,409.18
2019-01-17T04:57:12.927Z,409.38
2019-01-17T04:58:12.917Z,408.41
2019-01-17T04:59:12.896Z,410.31
2019-01-17T05:00:12.897Z,408.76
2019-01-17T05:01:12.885Z,409.85
2019-01-17T05:02:12.882Z,408.88
2019-01-17T05:03:12.850Z,408.79
2019-01-17T05:04:12.845Z,408.82
2019-01-17T05:05:12.838Z,409.53
2019-01-17T05:06:12.831Z,409.58
2019-01-17T05:07:12.829Z,409.40
2019-01-17T05:08:12.803Z,410.08
2019-01-17T05:09:12.787Z,409.44
2019-01-17T05:10:12.799Z,409.88
2019-01-17T05:11:12.754Z,409.44
2019-01-17T05:12:12.785Z,409.46
2019-01-17T05:13:12.746Z,409.07
2019-01-17T05:14:12.735Z,409.15
2019-01-17T05:15:12.713Z,409.50
2019-01-17T05:16:12.710Z,408.78
2019-01-17T05:17:12.724Z,408.48
2019-01-17T05:18:12.695Z,409.59
2019-01-17T05:19:12.679Z,409.55
2019-01-17T05:20:12.672Z,409.73
2019-01-17T05:21:12.649Z,409.83
2019-01-17T05:22:12.648Z,409.96
2019-01-17T05:23:12.647Z,410.00
2019-01-17T05:24:12.629Z,409.32
2019-01-17T05:25:13.086Z,409.98
2019-01-17T05:26:12.598Z,408.18
2019-01-17T05:27:12.586Z,410.08
2019-01-17T05:28:12.593Z,408.89
2019-01-17T05:29:12.577Z,409.92
2019-01-17T05:30:12.609Z,409.12
2019-01-17T05:31:12.533Z,409.68
2019-01-17T05:32:12.527Z,410.01
2019-01-17T05:33:12.545Z,410.30
2019-01-17T05:34:12.507Z,409.65
2019-01-17T05:35:12.511Z,408.29
2019-01-17T05:36:12.491Z,409.55
2019-01-17T05:37:12.470Z,409.31
2019-01-17T05:38:12.514Z,409.04
2019-01-17T05:39:12.450Z,409.17
2019-01-17T05:40:12.448Z,408.44
2019-01-17T05:41:12.434Z,409.14
2019-01-17T05:42:12.412Z,410.02
2019-01-17T05:43:12.406Z,409.02
2019-01-17T05:44:12.422Z,409.41
2019-01-17T05:45:12.395Z,408.89
2019-01-17T05:46:12.378Z,409.93
2019-01-17T05:47:12.380Z,409.07
2019-01-17T05:48:12.348Z,410.00
2019-01-17T05:49:12.366Z,409.55
2019-01-17T05:50:12.332Z,409.36
2019-01-17T05:51:12.312Z,409.97
2019-01-17T05:52:12.308Z,409.59
2019-01-17T05:53:12.285Z,410.49
2019-01-17T05:54:12.321Z,409.59
2019-01-17T05:55:19.279Z,410.38
2019-01-17T05:56:13.256Z,409.68
2019-01-17T05:57:12.240Z,409.72
2019-01-17T05:58:12.224Z,409.93
2019-01-17T05:59:12.249Z,410.00
2019-01-17T06:00:12.255Z,409.71
2019-01-17T06:01:12.212Z,409.42
2019-01-17T06:02:12.190Z,409.45
2019-01-17T06:03:12.183Z,410.01
2019-01-17T06:04:12.164Z,409.32
2019-01-17T06:05:12.197Z,408.92
2019-01-17T06:06:12.154Z,410.04
2019-01-17T06:07:12.138Z,410.33
2019-01-17T06:08:12.146Z,409.75
2019-01-17T06:09:12.115Z,409.86
2019-01-17T06:10:12.116Z,409.99
2019-01-17T06:11:12.094Z,409.48
2019-01-17T06:12:12.076Z,410.34
2019-01-17T06:13:12.078Z,410.27
2019-01-17T06:14:12.060Z,410.27
2019-01-17T06:15:12.071Z,410.02
2019-01-17T06:16:12.037Z,409.58
2019-01-17T06:17:12.019Z,410.17
2019-01-17T06:18:12.030Z,409.15
2019-01-17T06:19:12.037Z,409.38
2019-01-17T06:20:12.038Z,409.37
2019-01-17T06:21:12.002Z,410.10
2019-01-17T06:22:12.749Z,408.85
2019-01-17T06:23:11.949Z,409.98
2019-01-17T06:24:11.948Z,409.02
2019-01-17T06:25:11.937Z,409.95
2019-01-17T06:26:11.931Z,409.79
2019-01-17T06:27:11.905Z,410.07
2019-01-17T06:28:11.932Z,410.10
2019-01-17T06:29:11.889Z,409.64
2019-01-17T06:30:11.871Z,409.58
2019-01-17T06:31:11.889Z,409.27
2019-01-17T06:32:11.852Z,408.97
2019-01-17T06:33:11.839Z,410.17
2019-01-17T06:34:11.821Z,409.11
2019-01-17T06:35:11.823Z,409.61
2019-01-17T06:36:11.830Z,408.67
2019-01-17T06:37:11.802Z,409.30
2019-01-17T06:38:11.791Z,409.20
2019-01-17T06:39:11.805Z,409.96
2019-01-17T06:40:11.767Z,409.44
2019-01-17T06:41:11.750Z,409.61
2019-01-17T06:42:11.774Z,410.35
2019-01-17T06:43:11.732Z,410.00
2019-01-17T06:44:11.720Z,409.31
2019-01-17T06:45:11.713Z,410.26
2019-01-17T06:46:11.701Z,409.15
2019-01-17T06:47:11.713Z,411.17
2019-01-17T06:48:11.683Z,410.34
2019-01-17T06:49:11.669Z,409.57
2019-01-17T06:50:11.667Z,411.31
2019-01-17T06:51:11.651Z,410.24
2019-01-17T06:52:11.653Z,409.64
2019-01-17T06:53:11.620Z,408.77
2019-01-17T06:54:11.616Z,410.07
2019-01-17T06:55:11.600Z,409.45
2019-01-17T06:56:11.592Z,409.95
2019-01-17T06:57:11.579Z,409.96
2019-01-17T06:58:11.577Z,409.23
2019-01-17T06:59:11.558Z,409.83
2019-01-17T07:00:11.531Z,409.73
2019-01-17T07:01:11.539Z,410.25
2019-01-17T07:02:11.567Z,408.77
2019-01-17T07:03:11.501Z,409.48
2019-01-17T07:04:11.498Z,410.08
2019-01-17T07:05:11.494Z,408.89
2019-01-17T07:06:11.486Z,410.10
2019-01-17T07:07:11.464Z,409.71
2019-01-17T07:08:11.456Z,409.52
2019-01-17T07:09:11.463Z,409.67
2019-01-17T07:10:11.432Z,409.33
2019-01-17T07:11:11.408Z,409.87
2019-01-17T07:12:11.417Z,409.56
2019-01-17T07:13:11.407Z,408.28
2019-01-17T07:14:11.378Z,409.73
2019-01-17T07:15:11.374Z,409.09
2019-01-17T07:16:11.362Z,408.76
2019-01-17T07:17:11.351Z,409.68
2019-01-17T07:18:11.374Z,410.05
2019-01-17T07:19:11.334Z,409.64
2019-01-17T07:20:11.307Z,408.78
2019-01-17T07:21:11.302Z,409.00
2019-01-17T07:22:11.292Z,409.00
2019-01-17T07:23:11.337Z,410.21
2019-01-17T07:24:11.275Z,409.86
2019-01-17T07:25:11.244Z,410.30
2019-01-17T07:26:11.252Z,410.52
2019-01-17T07:27:11.832Z,409.31
2019-01-17T07:28:11.218Z,410.27
2019-01-17T07:29:11.221Z,409.67
2019-01-17T07:30:11.207Z,408.98
2019-01-17T07:31:11.191Z,411.05
2019-01-17T07:32:11.180Z,409.61
2019-01-17T07:33:11.166Z,409.95
2019-01-17T07:34:11.171Z,409.52
2019-01-17T07:35:11.150Z,411.15
2019-01-17T07:36:11.150Z,409.66
2019-01-17T07:37:11.127Z,410.37
2019-01-17T07:38:11.119Z,410.73
2019-01-17T07:39:11.133Z,409.80
2019-01-17T07:40:11.110Z,410.43
2019-01-17T07:41:11.081Z,410.32
2019-01-17T07:42:11.077Z,409.67
2019-01-17T07:43:11.071Z,409.43
2019-01-17T07:44:11.078Z,409.81
2019-01-17T07:45:11.040Z,409.61
2019-01-17T07:46:11.051Z,410.36
2019-01-17T07:47:11.013Z,408.85
2019-01-17T07:48:10.999Z,408.97
2019-01-17T07:49:11.018Z,409.85
2019-01-17T07:50:11.021Z,409.38
2019-01-17T07:51:10.972Z,409.88
2019-01-17T07:52:10.958Z,410.12
2019-01-17T07:53:10.943Z,410.80
2019-01-17T07:54:10.937Z,409.97
2019-01-17T07:55:10.930Z,409.27
2019-01-17T07:56:10.907Z,408.64
2019-01-17T07:57:10.900Z,409.46
2019-01-17T07:58:10.908Z,408.80
2019-01-17T07:59:10.874Z,409.91
2019-01-17T08:00:10.880Z,410.71
2019-01-17T08:01:14.993Z,410.66
2019-01-17T08:02:10.838Z,410.28
2019-01-17T08:03:10.836Z,410.52
2019-01-17T08:04:10.825Z,410.62
2019-01-17T08:05:10.824Z,409.12
2019-01-17T08:06:10.793Z,408.23
2019-01-17T08:07:10.782Z,410.29
2019-01-17T08:08:10.777Z,408.62
2019-01-17T08:09:10.773Z,409.36
2019-01-17T08:10:10.781Z,410.00
2019-01-17T08:11:10.771Z,409.54
2019-01-17T08:12:10.733Z,409.74
2019-01-17T08:13:10.717Z,409.01
2019-01-17T08:14:10.707Z,408.77
2019-01-17T08:15:10.709Z,409.10
2019-01-17T08:16:10.685Z,409.97
2019-01-17T08:17:10.695Z,409.40
2019-01-17T08:18:10.665Z,410.03
2019-01-17T08:19:10.654Z,408.82
2019-01-17T08:20:10.667Z,409.82
2019-01-17T08:21:10.634Z,410.65
2019-01-17T08:22:10.623Z,409.08
2019-01-17T08:23:10.629Z,408.49
2019-01-17T08:24:10.598Z,410.64
2019-01-17T08:25:10.611Z,409.96
2019-01-17T08:26:10.578Z,410.13
2019-01-17T08:27:10.559Z,410.40
2019-01-17T08:28:10.617Z,408.73
2019-01-17T08:29:10.563Z,408.49
2019-01-17T08:30:10.534Z,408.80
2019-01-17T08:31:11.278Z,409.13
2019-01-17T08:32:10.508Z,410.36
2019-01-17T08:33:10.494Z,409.61
2019-01-17T08:34:10.478Z,409.41
2019-01-17T08:35:10.499Z,408.62
2019-01-17T08:36:10.505Z,409.52
2019-01-17T08:37:10.468Z,409.18
2019-01-17T08:38:10.450Z,409.83
2019-01-17T08:39:10.424Z,409.47
2019-01-17T08:40:10.416Z,409.79
2019-01-17T08:41:10.426Z,408.48
2019-01-17T08:42:10.389Z,408.44
2019-01-17T08:43:10.388Z,408.07
2019-01-17T08:44:10.385Z,409.36
2019-01-17T08:45:10.364Z,409.00
2019-01-17T08:46:10.364Z,408.59
2019-01-17T08:47:10.350Z,409.65
2019-01-17T08:48:10.325Z,409.18
2019-01-17T08:49:10.322Z,409.49
2019-01-17T08:50:10.320Z,409.73
2019-01-17T08:51:10.303Z,409.46
2019-01-17T08:52:10.278Z,409.04
2019-01-17T08:53:10.280Z,408.67
2019-01-17T08:54:10.264Z,408.50
2019-01-17T08:55:10.254Z,409.36
2019-01-17T08:56:11.051Z,408.99
2019-01-17T08:57:10.226Z,410.11
2019-01-17T08:58:10.220Z,410.05
2019-01-17T08:59:10.208Z,410.30
2019-01-17T09:00:10.192Z,408.59
2019-01-17T09:01:10.232Z,409.23
2019-01-17T09:02:10.196Z,409.53
2019-01-17T09:03:10.150Z,409.26
2019-01-17T09:04:10.149Z,410.02
2019-01-17T09:05:10.134Z,409.85
2019-01-17T09:06:10.158Z,408.96
2019-01-17T09:07:10.126Z,409.02
2019-01-17T09:08:10.101Z,409.92
2019-01-17T09:09:10.088Z,408.75
2019-01-17T09:10:10.087Z,409.65
2019-01-17T09:11:10.091Z,409.62
2019-01-17T09:12:10.054Z,408.95
2019-01-17T09:13:10.051Z,410.66
2019-01-17T09:14:10.034Z,410.07
2019-01-17T09:15:10.019Z,410.05
2019-01-17T09:16:10.021Z,409.34
2019-01-17T09:17:09.997Z,409.18
2019-01-17T09:18:10.009Z,410.53
2019-01-17T09:19:09.971Z,410.25
2019-01-17T09:20:09.970Z,409.58
2019-01-17T09:21:09.984Z,409.57
2019-01-17T09:22:09.976Z,408.96
2019-01-17T09:23:09.931Z,409.89
2019-01-17T09:24:09.930Z,409.54
2019-01-17T09:25:09.903Z,409.29
2019-01-17T09:26:09.907Z,409.97
2019-01-17T09:27:09.910Z,409.83
2019-01-17T09:28:09.883Z,410.42
2019-01-17T09:29:09.878Z,409.73
2019-01-17T09:30:09.866Z,409.60
2019-01-17T09:31:09.841Z,408.58
2019-01-17T09:32:09.843Z,409.60
2019-01-17T09:33:09.852Z,409.75
2019-01-17T09:34:09.819Z,409.67
2019-01-17T09:35:09.803Z,410.02
2019-01-17T09:36:09.794Z,410.23
2019-01-17T09:37:09.807Z,409.88
2019-01-17T09:38:09.795Z,410.20
2019-01-17T09:39:09.757Z,409.87
2019-01-17T09:40:09.739Z,409.90
2019-01-17T09:41:09.741Z,410.02
2019-01-17T09:42:09.745Z,410.31
2019-01-17T09:43:09.709Z,409.80
2019-01-17T09:44:09.728Z,410.46
2019-01-17T09:45:09.692Z,410.00
2019-01-17T09:46:09.690Z,409.38
2019-01-17T09:47:09.678Z,410.25
2019-01-17T09:48:09.648Z,410.28
2019-01-17T09:49:09.712Z,409.76
2019-01-17T09:50:09.625Z,410.30
2019-01-17T09:51:09.611Z,409.43
2019-01-17T09:52:09.636Z,410.25
2019-01-17T09:53:09.609Z,411.23
2019-01-17T09:54:09.577Z,408.37
2019-01-17T09:55:09.584Z,410.97
2019-01-17T09:56:14.839Z,410.13
2019-01-17T09:57:10.597Z,410.02
2019-01-17T09:58:09.535Z,410.41
2019-01-17T09:59:09.524Z,408.78
2019-01-17T10:00:09.518Z,409.82
2019-01-17T10:01:09.516Z,410.29
2019-01-17T10:02:09.500Z,409.81
2019-01-17T10:03:09.515Z,409.68
2019-01-17T10:04:09.475Z,410.05
2019-01-17T10:05:09.455Z,409.68
2019-01-17T10:06:09.572Z,409.63
2019-01-17T10:07:09.437Z,410.31
2019-01-17T10:08:09.438Z,410.05
2019-01-17T10:09:09.430Z,408.62
2019-01-17T10:10:09.406Z,409.02
2019-01-17T10:11:09.391Z,409.90
2019-01-17T10:12:09.384Z,409.43
2019-01-17T10:13:09.396Z,410.15
2019-01-17T10:14:09.370Z,409.95
2019-01-17T10:15:09.351Z,408.60
2019-01-17T10:16:09.340Z,409.73
2019-01-17T10:17:09.319Z,409.89
2019-01-17T10:18:09.344Z,410.19
2019-01-17T10:19:09.323Z,411.21
2019-01-17T10:20:09.296Z,410.35
2019-01-17T10:21:09.278Z,409.99
2019-01-17T10:22:09.270Z,410.94
2019-01-17T10:23:09.295Z,410.67
2019-01-17T10:24:09.254Z,410.92
2019-01-17T10:25:09.250Z,410.20
2019-01-17T10:26:09.240Z,411.86
2019-01-17T10:27:09.216Z,410.99
2019-01-17T10:28:09.211Z,410.89
2019-01-17T10:29:09.232Z,410.62
2019-01-17T10:30:09.175Z,410.11
2019-01-17T10:31:09.175Z,411.10
2019-01-17T10:32:09.168Z,410.24
2019-01-17T10:33:09.160Z,409.47
2019-01-17T10:34:09.140Z,409.94
2019-01-17T10:35:09.145Z,409.72
2019-01-17T10:36:09.128Z,409.76
2019-01-17T10:37:09.123Z,410.77
2019-01-17T10:38:09.103Z,410.75
2019-01-17T10:39:09.096Z,411.07
2019-01-17T10:40:09.090Z,408.76
2019-01-17T10:41:09.063Z,412.64
2019-01-17T10:42:09.051Z,410.52
2019-01-17T10:43:09.043Z,410.70
2019-01-17T10:44:09.020Z,409.88
2019-01-17T10:45:09.033Z,410.16
2019-01-17T10:46:08.993Z,410.27
2019-01-17T10:47:08.998Z,409.73
2019-01-17T10:48:09.000Z,410.31
2019-01-17T10:49:08.975Z,410.85
2019-01-17T10:50:08.992Z,409.76
2019-01-17T10:51:08.949Z,411.38
2019-01-17T10:52:08.930Z,410.91
2019-01-17T10:53:08.921Z,410.25
2019-01-17T10:54:08.959Z,409.63
2019-01-17T10:55:08.903Z,411.28
2019-01-17T10:56:08.883Z,411.33
2019-01-17T10:57:08.887Z,408.80
2019-01-17T10:58:08.863Z,409.10
2019-01-17T10:59:08.869Z,410.11
2019-01-17T11:00:08.841Z,410.42
2019-01-17T11:01:08.841Z,410.64
2019-01-17T11:02:08.825Z,410.61
2019-01-17T11:03:08.846Z,410.60
2019-01-17T11:04:08.809Z,410.07
2019-01-17T11:05:09.301Z,410.48
2019-01-17T11:06:08.777Z,410.01
2019-01-17T11:07:08.758Z,409.43
2019-01-17T11:08:08.757Z,410.27
2019-01-17T11:09:08.764Z,410.00
2019-01-17T11:10:08.738Z,410.23
2019-01-17T11:11:08.716Z,410.57
2019-01-17T11:12:08.712Z,410.71
2019-01-17T11:13:08.692Z,410.59
2019-01-17T11:14:08.709Z,410.12
2019-01-17T11:15:08.673Z,410.60
2019-01-17T11:16:08.667Z,410.97
2019-01-17T11:17:08.652Z,410.84
2019-01-17T11:18:08.641Z,409.50
2019-01-17T11:19:08.636Z,410.90
2019-01-17T11:20:08.634Z,410.87
2019-01-17T11:21:08.602Z,410.73
2019-01-17T11:22:08.600Z,410.49
2019-01-17T11:23:08.584Z,409.74
2019-01-17T11:24:08.571Z,411.70
2019-01-17T11:25:08.569Z,409.41
2019-01-17T11:26:08.554Z,411.58
2019-01-17T11:27:08.542Z,410.81
2019-01-17T11:28:08.517Z,410.67
2019-01-17T11:29:08.512Z,409.91
2019-01-17T11:30:08.520Z,411.37
2019-01-17T11:31:08.490Z,410.33
2019-01-17T11:32:08.483Z,410.71
2019-01-17T11:33:08.464Z,411.10
2019-01-17T11:34:08.496Z,410.56
2019-01-17T11:35:08.460Z,410.09
2019-01-17T11:36:08.436Z,411.54
2019-01-17T11:37:08.422Z,409.55
2019-01-17T11:38:08.420Z,410.13
2019-01-17T11:39:08.400Z,411.07
2019-01-17T11:40:08.411Z,409.92
2019-01-17T11:41:08.387Z,410.09
2019-01-17T11:42:08.366Z,411.81
2019-01-17T11:43:08.370Z,411.03
2019-01-17T11:44:08.394Z,410.97
2019-01-17T11:45:08.366Z,410.42
2019-01-17T11:46:08.395Z,409.54
2019-01-17T11:47:08.327Z,410.41
2019-01-17T11:48:08.308Z,411.13
2019-01-17T11:49:08.293Z,411.24
2019-01-17T11:50:08.309Z,410.75
2019-01-17T11:51:08.282Z,409.85
2019-01-17T11:52:08.257Z,410.73
2019-01-17T11:53:08.247Z,408.93
2019-01-17T11:54:08.245Z,410.72
2019-01-17T11:55:08.277Z,410.81
2019-01-17T11:56:08.274Z,411.60
2019-01-17T11:57:08.223Z,410.99
2019-01-17T11:58:08.185Z,409.74
2019-01-17T11:59:08.193Z,410.82
2019-01-17T12:00:08.170Z,410.47
2019-01-17T12:01:08.166Z,410.88
2019-01-17T12:02:08.145Z,410.66
2019-01-17T12:03:08.140Z,409.74
2019-01-17T12:04:08.138Z,410.82
2019-01-17T12:05:08.120Z,409.57
2019-01-17T12:06:08.116Z,410.81
2019-01-17T12:07:08.089Z,409.01
2019-01-17T12:08:08.069Z,411.03
2019-01-17T12:09:08.069Z,410.23
2019-01-17T12:10:08.071Z,410.37
2019-01-17T12:11:08.053Z,409.52
2019-01-17T12:12:08.027Z,412.11
2019-01-17T12:13:08.028Z,411.25
2019-01-17T12:14:08.007Z,411.32
2019-01-17T12:15:08.057Z,411.19
2019-01-17T12:16:08.019Z,410.04
2019-01-17T12:17:07.980Z,411.84
2019-01-17T12:18:07.971Z,410.20
2019-01-17T12:19:07.960Z,410.27
2019-01-17T12:20:07.946Z,410.97
2019-01-17T12:21:07.957Z,409.24
2019-01-17T12:22:07.938Z,409.60
2019-01-17T12:23:07.906Z,410.69
2019-01-17T12:24:07.905Z,410.00
2019-01-17T12:25:07.886Z,410.73
2019-01-17T12:26:07.909Z,411.79
2019-01-17T12:27:07.865Z,411.35
2019-01-17T12:28:07.857Z,411.59